Overview Statistics Trail Chart Weather Telemetry Raw packets
 

This is the latest recevied weather packets stored in our database for station/object WC4PEM-4. If no packets are shown the sender has not sent any weather packets the latest 10 day(s).

<< 35 36 37 38 39 40 41 >>
Time Temp. Humidity Pressure Rain* Wind** Luminosity Snow
1788384375 25° C 95% 1013.4 hPa 16.76 mm - - -
1788384083 25° C 94% 1013.4 hPa 16.76 mm - - -
1788384075 25° C 94% 1013.4 hPa 16.76 mm - - -
1788383775 25° C 94% 1013.7 hPa 16.76 mm - - -
1788383475 24.44° C 94% 1013.7 hPa 16.76 mm - - -
1788383175 24.44° C 94% 1013.7 hPa 16.76 mm - - -
1788382875 24.44° C 92% 1013.7 hPa 16.76 mm - - -
1788382575 25° C 89% 1013.8 hPa 12.7 mm - - -
1788382404 25.56° C 87% 1014.2 hPa 4.57 mm - - -
1788382275 25.56° C 87% 1014.2 hPa 4.57 mm - - -
1788381975 26.67° C 86% 1014.1 hPa 0.25 mm - - -
1788381675 27.78° C 83% 1014.2 hPa 0 mm - - -
1788381532 28.33° C 84% 1014 hPa 0 mm - - -
1788381375 28.33° C 84% 1014 hPa 0 mm - - -
1788381330 28.89° C 84% 1013.9 hPa 0 mm - - -
1788381075 28.89° C 84% 1013.9 hPa 0 mm - - -
1788380946 29.44° C 82% 1013.7 hPa 0 mm - - -
1788380797 29.44° C 82% 1013.7 hPa 0 mm - - -
1788380691 29.44° C 84% 1013.5 hPa 0 mm - - -
1788380475 29.44° C 84% 1013.5 hPa 0 mm - - -
1788380175 29.44° C 86% 1013.4 hPa 0 mm - - -
1788380000 29.44° C 86% 1013.4 hPa 0 mm - - -
1788379875 29.44° C 86% 1013.4 hPa 0 mm - - -
1788379575 28.89° C 88% 1013.5 hPa 0 mm - - -
1788379459 28.89° C 88% 1013.4 hPa 0.25 mm - - -

* Rain latest hour (hover to see other rain measurements)
** Current wind speed in m/s (hover to see current wind gust speed)